createdAt,value
2022-08-19T00:04:41.543Z,3.47
2022-08-19T00:09:44.368Z,3.05
2022-08-19T00:14:47.506Z,3.05
2022-08-19T00:19:50.269Z,3.13
2022-08-19T00:24:52.965Z,3.40
2022-08-19T00:29:55.734Z,3.70
2022-08-19T00:34:58.668Z,3.85
2022-08-19T00:40:01.569Z,3.97
2022-08-19T00:45:14.778Z,3.70
2022-08-19T00:50:20.926Z,3.47
2022-08-19T00:55:26.230Z,3.78
2022-08-19T01:00:29.898Z,3.22
2022-08-19T01:05:33.103Z,3.47
2022-08-19T01:10:39.574Z,3.33
2022-08-19T01:15:46.894Z,3.88
2022-08-19T01:20:49.759Z,3.85
2022-08-19T01:25:53.690Z,4.20
2022-08-19T01:30:57.202Z,4.70
2022-08-19T01:36:16.257Z,4.70
2022-08-19T01:41:19.174Z,5.20
2022-08-19T01:46:24.997Z,4.90
2022-08-19T01:51:28.700Z,4.60
2022-08-19T01:56:31.524Z,4.47
2022-08-19T02:01:36.046Z,4.72
2022-08-19T02:06:40.696Z,4.78
2022-08-19T02:11:43.573Z,4.60
2022-08-19T02:16:46.548Z,4.22
2022-08-19T02:21:49.377Z,4.80
2022-08-19T02:26:52.652Z,5.22
2022-08-19T02:31:55.489Z,8.20
2022-08-19T02:37:03.110Z,6.13
2022-08-19T02:42:07.145Z,5.90
2022-08-19T02:47:11.510Z,6.57
2022-08-19T02:52:14.346Z,5.75
2022-08-19T03:02:31.355Z,7.15
2022-08-19T03:07:36.456Z,7.32
2022-08-19T03:12:42.161Z,6.25
2022-08-19T03:17:44.915Z,5.30
2022-08-19T03:22:47.753Z,4.55
2022-08-19T03:27:50.606Z,6.05
2022-08-19T03:32:57.324Z,5.80
2022-08-19T03:38:00.967Z,5.80
2022-08-19T03:43:04.065Z,6.43
2022-08-19T03:48:09.878Z,5.60
2022-08-19T03:58:17.449Z,5.97
2022-08-19T04:03:20.676Z,5.97
2022-08-19T04:08:23.840Z,6.60
2022-08-19T04:13:26.712Z,6.45
2022-08-19T04:18:35.969Z,6.93
2022-08-19T04:23:45.606Z,6.88
2022-08-19T04:28:49.224Z,6.55
2022-08-19T04:33:52.025Z,7.15
2022-08-19T04:38:56.764Z,8.45
2022-08-19T04:44:04.149Z,6.90
2022-08-19T04:49:13.142Z,7.55
2022-08-19T04:54:23.922Z,6.60
2022-08-19T04:59:43.512Z,7.40
2022-08-19T05:04:46.266Z,8.07
2022-08-19T05:09:56.642Z,7.45
2022-08-19T05:15:07.246Z,8.73
2022-08-19T05:20:29.111Z,8.07
2022-08-19T05:25:32.721Z,8.52
2022-08-19T05:30:46.857Z,8.90
2022-08-19T05:35:50.760Z,8.40
2022-08-19T05:41:00.291Z,8.07
2022-08-19T05:46:15.612Z,7.40
2022-08-19T05:57:11.759Z,7.38
2022-08-19T06:02:16.505Z,7.80
2022-08-19T06:07:20.574Z,9.07
2022-08-19T06:12:30.535Z,10.75
2022-08-19T06:17:36.099Z,10.13
2022-08-19T06:28:13.574Z,10.25
2022-08-19T06:33:11.695Z,9.45
2022-08-19T06:38:14.662Z,8.10
2022-08-19T06:43:18.561Z,8.75
2022-08-19T06:48:21.684Z,7.88
2022-08-19T06:53:44.428Z,7.00
2022-08-19T06:58:53.817Z,7.43
2022-08-19T07:03:57.879Z,7.63
2022-08-19T07:09:01.765Z,6.80
2022-08-19T07:14:19.279Z,7.75
2022-08-19T07:19:23.461Z,7.50
2022-08-19T07:24:31.187Z,9.23
2022-08-19T07:29:39.458Z,9.63
2022-08-19T07:34:42.321Z,10.27
2022-08-19T07:39:45.958Z,10.98
2022-08-19T07:44:50.138Z,12.05
2022-08-19T07:49:53.682Z,9.87
2022-08-19T07:54:56.376Z,12.30
2022-08-19T07:59:59.966Z,13.38
2022-08-19T08:05:21.607Z,12.75
2022-08-19T08:10:30.837Z,12.73
2022-08-19T08:15:35.686Z,12.98
2022-08-19T08:20:43.213Z,11.88
2022-08-19T08:25:46.200Z,13.65
2022-08-19T08:30:54.894Z,10.60
2022-08-19T08:35:58.409Z,9.93
2022-08-19T08:41:15.107Z,10.73
2022-08-19T08:46:32.456Z,9.45
2022-08-19T08:51:37.571Z,9.88
2022-08-19T08:56:42.100Z,8.85
2022-08-19T09:01:47.763Z,8.23
2022-08-19T09:06:56.694Z,8.65
2022-08-19T09:12:12.372Z,8.50
2022-08-19T09:17:16.056Z,8.52
2022-08-19T09:22:25.869Z,8.70
2022-08-19T09:27:41.883Z,6.70
2022-08-19T09:32:54.920Z,9.20
2022-08-19T09:37:59.851Z,7.38
2022-08-19T09:43:09.954Z,6.90
2022-08-19T09:48:19.129Z,5.40
2022-08-19T09:53:39.714Z,6.18
2022-08-19T09:58:45.103Z,7.00
2022-08-19T10:03:54.271Z,6.97
2022-08-19T10:09:02.583Z,6.32
2022-08-19T10:14:29.648Z,7.45
2022-08-19T10:19:38.769Z,7.97
2022-08-19T10:24:46.380Z,7.80
2022-08-19T10:29:54.855Z,8.77
2022-08-19T10:41:16.084Z,8.73
2022-08-19T10:46:23.084Z,9.00
2022-08-19T10:51:47.909Z,9.32
2022-08-19T10:56:54.261Z,9.65
2022-08-19T11:02:04.824Z,8.95
2022-08-19T11:07:11.501Z,9.20
2022-08-19T11:12:15.114Z,9.57
2022-08-19T11:17:18.158Z,9.00
2022-08-19T11:22:23.540Z,9.40
2022-08-19T11:27:35.091Z,8.95
2022-08-19T11:32:40.227Z,9.20
2022-08-19T11:37:43.034Z,9.23
2022-08-19T11:42:58.039Z,10.70
2022-08-19T11:48:00.817Z,11.20
2022-08-19T11:53:03.627Z,10.98
2022-08-19T11:58:18.639Z,10.27
2022-08-19T12:03:25.147Z,10.23
2022-08-19T12:08:28.077Z,10.30
2022-08-19T12:13:31.915Z,10.43
2022-08-19T12:18:37.569Z,10.63
2022-08-19T12:23:40.508Z,11.05
2022-08-19T12:28:43.938Z,11.95
2022-08-19T12:33:47.930Z,11.23
2022-08-19T12:38:50.696Z,12.32
2022-08-19T12:43:53.801Z,10.38
2022-08-19T12:48:58.090Z,11.15
2022-08-19T12:54:02.931Z,13.37
2022-08-19T12:59:26.371Z,12.77
2022-08-19T13:04:48.007Z,13.75
2022-08-19T13:09:53.275Z,16.15
2022-08-19T13:14:57.646Z,16.80
2022-08-19T13:20:01.425Z,16.67
2022-08-19T13:25:07.320Z,18.52
2022-08-19T13:30:30.427Z,20.37
2022-08-19T13:35:35.528Z,20.42
2022-08-19T13:41:25.541Z,22.13
2022-08-19T13:46:40.109Z,24.67
2022-08-19T13:51:48.406Z,23.83
2022-08-19T13:57:00.698Z,22.65
2022-08-19T14:07:25.068Z,27.40
2022-08-19T14:12:28.658Z,28.05
2022-08-19T14:17:32.055Z,21.52
2022-08-19T14:22:36.189Z,22.88
2022-08-19T14:27:40.093Z,23.63
2022-08-19T14:32:44.646Z,25.25
2022-08-19T14:37:47.741Z,29.10
2022-08-19T14:42:50.620Z,30.30
2022-08-19T14:47:53.794Z,29.38
2022-08-19T14:53:08.135Z,31.42
2022-08-19T14:58:29.266Z,33.30
2022-08-19T15:03:33.588Z,30.15
2022-08-19T15:08:38.162Z,31.30
2022-08-19T15:13:40.948Z,29.00
2022-08-19T15:18:46.508Z,25.67
2022-08-19T15:28:55.860Z,28.65
2022-08-19T15:33:59.193Z,30.50
2022-08-19T15:39:02.726Z,28.15
2022-08-19T15:44:09.963Z,26.77
2022-08-19T15:49:14.503Z,24.80
2022-08-19T15:54:22.146Z,24.38
2022-08-19T15:59:47.147Z,25.17
2022-08-19T16:05:10.938Z,28.58
2022-08-19T16:10:26.954Z,26.77
2022-08-19T16:15:31.534Z,22.80
2022-08-19T16:20:35.711Z,23.77
2022-08-19T16:25:39.792Z,24.10
2022-08-19T16:30:48.525Z,23.92
2022-08-19T16:36:00.292Z,21.45
2022-08-19T16:41:10.135Z,17.92
2022-08-19T16:46:13.014Z,15.80
2022-08-19T16:51:23.086Z,16.98
2022-08-19T16:56:26.166Z,16.27
2022-08-19T17:01:29.616Z,16.48
2022-08-19T17:06:32.459Z,15.88
2022-08-19T17:11:36.038Z,15.50
2022-08-19T17:16:39.549Z,18.17
2022-08-19T17:21:45.044Z,17.23
2022-08-19T17:31:50.399Z,23.95
2022-08-19T17:36:57.332Z,22.75
2022-08-19T17:42:03.030Z,21.73
2022-08-19T17:47:06.087Z,21.08
2022-08-19T17:52:10.165Z,20.95
2022-08-19T17:57:14.456Z,21.02
2022-08-19T18:02:21.430Z,21.30
2022-08-19T18:07:24.876Z,21.48
2022-08-19T18:12:27.650Z,22.30
2022-08-19T18:17:30.692Z,23.42
2022-08-19T18:22:39.346Z,25.17
2022-08-19T18:27:43.774Z,25.83
2022-08-19T18:32:49.930Z,26.13
2022-08-19T18:37:52.760Z,26.42
2022-08-19T18:43:14.325Z,27.90
2022-08-19T18:48:35.315Z,29.00
2022-08-19T18:53:39.985Z,29.90
2022-08-19T18:58:43.890Z,29.58
2022-08-19T19:03:53.824Z,29.92
2022-08-19T19:08:57.189Z,31.00
2022-08-19T19:14:04.110Z,32.03
2022-08-19T19:19:13.700Z,31.60
2022-08-19T19:24:20.736Z,30.40
2022-08-19T19:29:24.466Z,30.60
2022-08-19T19:34:29.079Z,31.88
2022-08-19T19:39:46.093Z,30.02
2022-08-19T19:44:51.787Z,29.83
2022-08-19T19:50:14.798Z,28.92
2022-08-19T19:55:18.807Z,28.20
2022-08-19T20:00:22.128Z,25.40
2022-08-19T20:05:25.574Z,26.42
2022-08-19T20:10:28.413Z,25.23
2022-08-19T20:15:32.443Z,25.77
2022-08-19T20:20:35.372Z,25.42
2022-08-19T20:25:38.893Z,26.58
2022-08-19T20:30:46.429Z,25.75
2022-08-19T20:35:50.816Z,26.23
2022-08-19T20:40:53.753Z,27.48
2022-08-19T20:45:56.684Z,26.13
2022-08-19T20:50:59.735Z,27.40
2022-08-19T20:56:02.943Z,28.80
2022-08-19T21:01:06.992Z,29.85
2022-08-19T21:06:11.747Z,28.75
2022-08-19T21:11:16.641Z,30.40
2022-08-19T21:16:23.730Z,29.00
2022-08-19T21:21:26.675Z,28.02
2022-08-19T21:26:29.505Z,27.83
2022-08-19T21:31:32.891Z,27.45
2022-08-19T21:36:35.823Z,26.95
2022-08-19T21:41:43.026Z,26.27
2022-08-19T21:46:50.568Z,27.25
2022-08-19T21:51:56.504Z,26.60
2022-08-19T21:56:59.265Z,26.67
2022-08-19T22:02:15.850Z,26.73
2022-08-19T22:07:22.910Z,25.67
2022-08-19T22:12:33.021Z,25.95
2022-08-19T22:17:36.530Z,25.45
2022-08-19T22:22:40.828Z,25.33
2022-08-19T22:27:43.607Z,24.95
2022-08-19T22:32:56.401Z,27.05
2022-08-19T22:37:59.978Z,27.08
2022-08-19T22:43:12.296Z,26.85
2022-08-19T22:48:17.789Z,27.85
2022-08-19T22:58:28.049Z,28.95
2022-08-19T23:03:31.383Z,28.08
2022-08-19T23:08:34.565Z,27.75
2022-08-19T23:13:41.108Z,26.05
2022-08-19T23:18:44.017Z,26.85
2022-08-19T23:23:46.997Z,27.98
2022-08-19T23:29:07.928Z,24.92
2022-08-19T23:34:10.783Z,26.45
2022-08-19T23:39:13.479Z,25.58
2022-08-19T23:44:16.273Z,24.73
2022-08-19T23:49:21.139Z,22.70
2022-08-19T23:54:43.110Z,21.33
2022-08-19T23:59:46.582Z,19.67
